createdAt,value
2022-12-01T00:00:13.610Z,3.97
2022-12-01T00:02:40.364Z,3.95
2022-12-01T00:05:07.355Z,3.89
2022-12-01T00:07:34.094Z,3.83
2022-12-01T00:10:19.381Z,3.68
2022-12-01T00:12:46.079Z,3.57
2022-12-01T00:15:13.114Z,3.45
2022-12-01T00:17:39.731Z,3.34
2022-12-01T00:20:07.101Z,3.21
2022-12-01T00:22:33.754Z,3.11
2022-12-01T00:25:00.490Z,2.98
2022-12-01T00:27:27.250Z,2.83
2022-12-01T00:29:53.959Z,2.68
2022-12-01T00:32:20.610Z,2.54
2022-12-01T00:34:47.263Z,2.51
2022-12-01T00:37:13.955Z,2.45
2022-12-01T00:39:40.761Z,2.34
2022-12-01T00:42:12.868Z,2.32
2022-12-01T00:44:40.126Z,2.26
2022-12-01T00:47:06.781Z,2.21
2022-12-01T00:49:33.554Z,2.16
2022-12-01T00:52:00.230Z,2.11
2022-12-01T00:54:26.854Z,2.08
2022-12-01T00:56:53.522Z,2.02
2022-12-01T00:59:20.175Z,1.99
2022-12-01T01:01:46.959Z,1.95
2022-12-01T01:04:13.833Z,1.92
2022-12-01T01:06:43.303Z,1.88
2022-12-01T01:09:10.806Z,1.84
2022-12-01T01:11:37.429Z,1.82
2022-12-01T01:14:04.412Z,1.77
2022-12-01T01:16:31.026Z,1.77
2022-12-01T01:18:58.328Z,1.78
2022-12-01T01:21:25.770Z,1.81
2022-12-01T01:23:54.166Z,1.82
2022-12-01T01:26:30.326Z,1.80
2022-12-01T01:29:01.852Z,1.77
2022-12-01T01:31:30.793Z,1.73
2022-12-01T01:33:58.223Z,1.69
2022-12-01T01:36:25.445Z,1.70
2022-12-01T01:38:53.242Z,1.68
2022-12-01T01:41:20.886Z,1.63
2022-12-01T01:43:49.958Z,1.59
2022-12-01T01:46:47.079Z,1.55
2022-12-01T01:49:16.897Z,1.50
2022-12-01T01:51:50.940Z,1.47
2022-12-01T01:54:23.630Z,1.47
2022-12-01T01:56:51.566Z,1.46
2022-12-01T01:59:21.693Z,1.42
2022-12-01T02:01:52.806Z,1.39
2022-12-01T02:04:20.012Z,1.33
2022-12-01T02:06:46.799Z,1.30
2022-12-01T02:09:13.422Z,1.30
2022-12-01T02:11:56.529Z,1.28
2022-12-01T02:14:41.840Z,1.32
2022-12-01T02:17:41.389Z,1.33
2022-12-01T02:20:52.511Z,1.40
2022-12-01T02:23:28.050Z,1.39
2022-12-01T02:26:22.157Z,1.34
2022-12-01T02:29:03.643Z,1.22
2022-12-01T02:31:48.977Z,1.20
2022-12-01T02:34:35.384Z,1.16
2022-12-01T02:37:10.510Z,1.11
2022-12-01T02:39:54.158Z,1.06
2022-12-01T02:42:48.450Z,1.00
2022-12-01T02:45:29.302Z,0.92
2022-12-01T02:47:57.558Z,0.85
2022-12-01T02:50:25.618Z,0.78
2022-12-01T02:52:53.476Z,0.70
2022-12-01T02:55:20.427Z,0.64
2022-12-01T02:57:47.122Z,0.60
2022-12-01T03:00:15.143Z,0.55
2022-12-01T03:03:19.364Z,0.48
2022-12-01T03:05:55.134Z,0.43
2022-12-01T03:08:50.963Z,0.35
2022-12-01T03:11:27.244Z,0.29
2022-12-01T03:13:57.285Z,0.24
2022-12-01T03:16:50.706Z,0.20
2022-12-01T03:19:35.944Z,0.14
2022-12-01T03:22:09.995Z,0.12
2022-12-01T03:24:38.231Z,0.09
2022-12-01T03:27:06.019Z,0.06
2022-12-01T03:29:36.687Z,0.04
2022-12-01T03:32:26.520Z,-0.02
2022-12-01T03:35:00.470Z,-0.05
2022-12-01T03:37:35.890Z,-0.07
2022-12-01T03:40:06.331Z,-0.05
2022-12-01T03:42:39.620Z,-0.07
2022-12-01T03:45:10.339Z,-0.10
2022-12-01T03:47:39.504Z,-0.14
2022-12-01T03:50:07.607Z,-0.12
2022-12-01T03:52:53.975Z,-0.11
2022-12-01T03:55:24.714Z,-0.07
2022-12-01T03:58:13.441Z,-0.03
2022-12-01T04:00:41.247Z,-0.03
2022-12-01T04:03:07.983Z,-0.01
2022-12-01T04:05:35.334Z,-0.03
2022-12-01T04:08:02.324Z,-0.03
2022-12-01T04:10:29.123Z,-0.01
2022-12-01T04:12:59.486Z,-0.03
2022-12-01T04:15:26.899Z,-0.05
2022-12-01T04:17:54.091Z,-0.08
2022-12-01T04:20:21.175Z,-0.10
2022-12-01T04:22:48.231Z,-0.12
2022-12-01T04:25:15.182Z,-0.16
2022-12-01T04:27:42.035Z,-0.20
2022-12-01T04:30:09.150Z,-0.19
2022-12-01T04:32:40.494Z,-0.20
2022-12-01T04:35:09.315Z,-0.17
2022-12-01T04:37:36.336Z,-0.15
2022-12-01T04:40:03.878Z,-0.17
2022-12-01T04:42:30.482Z,-0.21
2022-12-01T04:44:57.206Z,-0.21
2022-12-01T04:47:24.067Z,-0.23
2022-12-01T04:49:51.050Z,-0.26
2022-12-01T04:52:18.091Z,-0.29
2022-12-01T04:54:44.801Z,-0.32
2022-12-01T04:57:11.496Z,-0.33
2022-12-01T04:59:38.185Z,-0.36
2022-12-01T05:02:04.874Z,-0.40
2022-12-01T05:04:33.851Z,-0.42
2022-12-01T05:07:00.611Z,-0.41
2022-12-01T05:09:27.427Z,-0.43
2022-12-01T05:11:54.161Z,-0.43
2022-12-01T05:14:20.761Z,-0.43
2022-12-01T05:16:47.504Z,-0.37
2022-12-01T05:19:32.533Z,-0.31
2022-12-01T05:21:59.212Z,-0.24
2022-12-01T05:24:25.949Z,-0.21
2022-12-01T05:26:52.590Z,-0.18
2022-12-01T05:29:19.366Z,-0.22
2022-12-01T05:31:46.910Z,-0.24
2022-12-01T05:34:14.085Z,-0.25
2022-12-01T05:36:40.819Z,-0.25
2022-12-01T05:39:07.501Z,-0.29
2022-12-01T05:41:34.189Z,-0.33
2022-12-01T05:44:16.367Z,-0.33
2022-12-01T06:47:42.940Z,-0.25
2022-12-01T06:54:11.510Z,0.23
2022-12-01T06:56:38.419Z,0.53
2022-12-01T06:59:05.226Z,0.62
2022-12-01T07:01:32.112Z,0.69
2022-12-01T07:03:58.862Z,0.72
2022-12-01T07:06:25.482Z,0.66
2022-12-01T07:08:53.100Z,0.68
2022-12-01T07:11:19.772Z,0.85
2022-12-01T07:13:46.544Z,1.07
2022-12-01T07:16:13.311Z,1.24
2022-12-01T07:18:40.598Z,1.48
2022-12-01T07:21:12.900Z,1.64
2022-12-01T07:23:42.891Z,1.76
2022-12-01T07:26:17.455Z,1.84
2022-12-01T07:28:44.985Z,2.09
2022-12-01T07:31:14.332Z,2.29
2022-12-01T07:33:41.429Z,2.39
2022-12-01T07:36:08.862Z,2.59
2022-12-01T07:38:42.121Z,2.78
2022-12-01T07:41:18.996Z,3.03
2022-12-01T07:43:48.635Z,3.24
2022-12-01T07:46:23.341Z,3.39
2022-12-01T07:48:51.566Z,3.47
2022-12-01T07:51:19.860Z,3.57
2022-12-01T07:53:49.155Z,3.81
2022-12-01T07:56:16.541Z,4.02
2022-12-01T07:58:43.883Z,4.21
2022-12-01T08:01:15.836Z,4.63
2022-12-01T08:03:43.248Z,5.11
2022-12-01T08:06:10.946Z,5.32
2022-12-01T08:08:40.767Z,5.55
2022-12-01T08:11:19.651Z,5.68
2022-12-01T08:13:46.994Z,5.89
2022-12-01T08:16:20.193Z,6.05
2022-12-01T08:18:47.760Z,6.25
2022-12-01T08:21:16.622Z,6.21
2022-12-01T08:23:43.961Z,6.56
2022-12-01T08:26:15.920Z,6.97
2022-12-01T08:28:43.581Z,7.16
2022-12-01T08:31:20.175Z,7.39
2022-12-01T08:33:52.955Z,7.76
2022-12-01T08:36:20.873Z,8.13
2022-12-01T08:38:49.884Z,8.55
2022-12-01T08:41:17.513Z,8.80
2022-12-01T08:44:01.292Z,9.14
2022-12-01T08:46:33.231Z,9.60
2022-12-01T08:49:00.842Z,9.96
2022-12-01T08:51:28.289Z,10.32
2022-12-01T08:53:57.209Z,10.76
2022-12-01T08:56:30.253Z,11.00
2022-12-01T08:58:57.286Z,10.99
2022-12-01T09:01:25.875Z,11.23
2022-12-01T09:04:11.182Z,11.45
2022-12-01T09:06:41.630Z,11.66
2022-12-01T09:09:13.918Z,11.58
2022-12-01T09:11:41.268Z,11.56
2022-12-01T09:14:08.194Z,11.68
2022-12-01T09:16:35.082Z,11.41
2022-12-01T09:19:02.354Z,11.20
2022-12-01T09:21:31.163Z,11.26
2022-12-01T09:24:03.875Z,11.39
2022-12-01T09:26:31.262Z,11.58
2022-12-01T09:29:03.872Z,11.58
2022-12-01T09:31:31.874Z,11.43
2022-12-01T09:34:00.855Z,11.56
2022-12-01T09:36:29.786Z,11.56
2022-12-01T09:38:56.830Z,11.98
2022-12-01T09:41:28.534Z,11.91
2022-12-01T09:44:05.793Z,12.03
2022-12-01T09:46:37.409Z,12.18
2022-12-01T09:49:06.753Z,12.54
2022-12-01T09:51:36.283Z,12.79
2022-12-01T09:54:03.528Z,12.96
2022-12-01T09:56:32.809Z,13.02
2022-12-01T09:59:07.273Z,12.55
2022-12-01T10:01:39.600Z,12.29
2022-12-01T10:04:10.145Z,12.00
2022-12-01T10:06:48.929Z,11.85
2022-12-01T10:09:33.867Z,11.70
2022-12-01T10:12:15.014Z,11.55
2022-12-01T10:14:44.635Z,11.68
2022-12-01T10:17:36.829Z,11.29
2022-12-01T10:20:04.225Z,11.34
2022-12-01T10:22:54.365Z,11.32
2022-12-01T10:25:24.840Z,11.47
2022-12-01T10:28:05.196Z,11.77
2022-12-01T10:30:39.196Z,11.75
2022-12-01T10:33:27.681Z,11.63
2022-12-01T10:35:55.377Z,11.76
2022-12-01T10:38:33.053Z,12.07
2022-12-01T10:41:01.259Z,12.23
2022-12-01T10:43:33.322Z,12.70
2022-12-01T10:46:02.000Z,13.18
2022-12-01T10:48:29.237Z,13.74
2022-12-01T10:51:13.724Z,14.05
2022-12-01T10:53:40.463Z,14.36
2022-12-01T10:56:12.509Z,14.83
2022-12-01T10:58:51.528Z,14.99
2022-12-01T11:01:24.380Z,15.45
2022-12-01T11:03:54.870Z,15.05
2022-12-01T11:07:37.459Z,15.29
2022-12-01T11:46:09.958Z,14.10
2022-12-01T11:48:37.005Z,14.63
2022-12-01T11:51:32.975Z,15.43
2022-12-01T11:54:26.445Z,16.29
2022-12-01T11:57:17.807Z,16.90
2022-12-01T11:59:41.888Z,17.23
2022-12-01T12:02:18.240Z,17.50
2022-12-01T12:05:25.432Z,17.94
2022-12-01T12:08:02.150Z,17.68
2022-12-01T12:10:59.714Z,17.15
2022-12-01T12:13:33.027Z,16.30
2022-12-01T12:16:08.966Z,15.31
2022-12-01T12:18:54.305Z,14.87
2022-12-01T12:21:32.928Z,15.14
2022-12-01T12:24:05.621Z,15.76
2022-12-01T12:27:19.751Z,16.18
2022-12-01T12:29:52.840Z,15.61
2022-12-01T12:32:47.311Z,15.16
2022-12-01T12:35:32.355Z,14.94
2022-12-01T12:38:09.134Z,15.13
2022-12-01T12:40:52.356Z,15.11
2022-12-01T12:43:49.846Z,14.80
2022-12-01T12:46:23.589Z,14.49
2022-12-01T12:49:19.128Z,14.45
2022-12-01T12:51:52.346Z,14.66
2022-12-01T12:54:31.483Z,14.57
2022-12-01T12:57:04.079Z,14.71
2022-12-01T12:59:40.273Z,14.51
2022-12-01T13:02:16.193Z,14.71
2022-12-01T13:05:08.806Z,14.90
2022-12-01T13:07:46.505Z,14.98
2022-12-01T13:10:45.014Z,15.01
2022-12-01T13:13:25.945Z,14.60
2022-12-01T13:15:54.868Z,14.51
2022-12-01T13:18:41.295Z,14.60
2022-12-01T13:21:14.862Z,14.73
2022-12-01T13:23:41.822Z,14.57
2022-12-01T13:26:10.260Z,14.26
2022-12-01T13:28:43.822Z,13.98
2022-12-01T13:31:13.400Z,13.77
2022-12-01T13:33:48.366Z,13.33
2022-12-01T13:36:45.104Z,12.80
2022-12-01T13:39:05.598Z,12.17
2022-12-01T13:41:33.976Z,11.83
2022-12-01T13:44:22.905Z,11.42
2022-12-01T13:46:53.251Z,11.01
2022-12-01T13:49:47.774Z,10.65
2022-12-01T13:52:26.709Z,10.38
2022-12-01T13:55:09.370Z,10.14
2022-12-01T13:57:53.052Z,10.09
2022-12-01T14:00:26.147Z,9.96
2022-12-01T14:03:20.327Z,9.75
2022-12-01T14:05:53.863Z,9.52
2022-12-01T14:08:23.747Z,9.44
2022-12-01T14:10:59.279Z,9.33
2022-12-01T14:13:27.832Z,9.19
2022-12-01T14:15:55.086Z,9.03
2022-12-01T14:18:45.394Z,8.85
2022-12-01T14:21:12.611Z,8.70
2022-12-01T14:24:02.223Z,8.47
2022-12-01T14:26:30.411Z,8.29
2022-12-01T14:29:00.533Z,8.17
2022-12-01T14:31:33.492Z,8.00
2022-12-01T14:34:19.079Z,7.86
2022-12-01T14:36:53.472Z,7.68
2022-12-01T14:39:24.258Z,7.55
2022-12-01T14:41:58.957Z,7.41
2022-12-01T14:44:42.025Z,7.21
2022-12-01T14:47:12.368Z,7.02
2022-12-01T14:50:06.316Z,6.82
2022-12-01T14:52:38.769Z,6.60
2022-12-01T14:55:17.687Z,6.42
2022-12-01T14:57:48.506Z,6.27
2022-12-01T15:00:19.223Z,6.08
2022-12-01T15:02:57.530Z,5.92
2022-12-01T15:05:29.932Z,5.75
2022-12-01T15:08:33.250Z,5.56
2022-12-01T15:10:54.882Z,5.41
2022-12-01T15:13:28.615Z,5.27
2022-12-01T15:15:58.832Z,5.13
2022-12-01T15:18:31.947Z,5.04
2022-12-01T15:21:07.180Z,4.96
2022-12-01T15:23:34.498Z,4.88
2022-12-01T15:26:01.499Z,4.87
2022-12-01T15:28:34.294Z,4.85
2022-12-01T15:31:11.763Z,4.76
2022-12-01T15:33:46.948Z,4.71
2022-12-01T15:36:14.506Z,4.65
2022-12-01T15:38:43.301Z,4.62
2022-12-01T15:41:35.110Z,4.56
2022-12-01T15:44:03.811Z,4.48
2022-12-01T15:46:33.304Z,4.41
2022-12-01T15:49:30.563Z,4.32
2022-12-01T15:52:09.641Z,4.29
2022-12-01T15:54:37.644Z,4.25
2022-12-01T15:57:05.510Z,4.25
2022-12-01T15:59:45.735Z,4.23
2022-12-01T16:02:32.212Z,4.19
2022-12-01T16:05:01.525Z,4.16
2022-12-01T16:08:04.549Z,4.13
2022-12-01T16:10:33.279Z,4.09
2022-12-01T16:13:52.014Z,4.03
2022-12-01T16:16:34.343Z,4.04
2022-12-01T16:19:10.660Z,4.05
2022-12-01T16:21:54.535Z,4.02
2022-12-01T16:24:28.164Z,3.98
2022-12-01T16:27:07.333Z,3.98
2022-12-01T16:29:46.942Z,3.94
2022-12-01T16:32:21.622Z,3.89
2022-12-01T16:34:50.761Z,3.86
2022-12-01T16:37:18.553Z,3.83
2022-12-01T16:39:46.556Z,3.81
2022-12-01T16:42:18.677Z,3.78
2022-12-01T16:44:46.658Z,3.72
2022-12-01T16:47:15.473Z,3.63
2022-12-01T16:49:42.774Z,3.63
2022-12-01T16:52:36.635Z,3.59
2022-12-01T16:54:57.913Z,3.54
2022-12-01T16:57:25.556Z,3.51
2022-12-01T16:59:53.176Z,3.48
2022-12-01T17:02:20.506Z,3.45
2022-12-01T17:04:47.794Z,3.46
2022-12-01T17:07:15.355Z,3.41
2022-12-01T17:09:42.568Z,3.33
2022-12-01T17:12:10.357Z,3.27
2022-12-01T17:14:38.376Z,3.18
2022-12-01T17:17:05.610Z,3.14
2022-12-01T17:19:32.845Z,3.06
2022-12-01T17:22:00.288Z,2.99
2022-12-01T17:24:27.629Z,2.95
2022-12-01T17:26:55.033Z,2.84
2022-12-01T17:29:22.370Z,2.81
2022-12-01T17:31:49.909Z,2.78
2022-12-01T17:34:18.372Z,2.75
2022-12-01T17:36:46.051Z,2.73
2022-12-01T17:39:13.498Z,2.66
2022-12-01T17:41:42.584Z,2.62
2022-12-01T17:44:10.195Z,2.58
2022-12-01T17:46:38.806Z,2.55
2022-12-01T17:49:09.531Z,2.46
2022-12-01T17:51:37.775Z,2.45
2022-12-01T17:54:06.085Z,2.46
2022-12-01T17:56:34.065Z,2.41
2022-12-01T17:59:02.199Z,2.39
2022-12-01T18:01:30.748Z,2.35
2022-12-01T18:03:59.285Z,2.29
2022-12-01T18:06:27.599Z,2.17
2022-12-01T18:08:55.588Z,2.17
2022-12-01T18:11:24.603Z,2.13
2022-12-01T18:13:53.396Z,2.11
2022-12-01T18:16:25.490Z,2.03
2022-12-01T18:18:53.748Z,1.99
2022-12-01T18:21:25.611Z,1.96
2022-12-01T18:23:58.494Z,1.93
2022-12-01T18:26:27.076Z,1.85
2022-12-01T18:29:28.943Z,1.88
2022-12-01T18:31:57.843Z,1.86
2022-12-01T18:34:29.731Z,1.86
2022-12-01T18:36:57.754Z,1.86
2022-12-01T18:39:25.413Z,1.85
2022-12-01T18:41:53.080Z,1.83
2022-12-01T18:44:20.524Z,1.81
2022-12-01T18:46:47.956Z,1.79
2022-12-01T18:49:16.052Z,1.78
2022-12-01T18:51:43.629Z,1.80
2022-12-01T18:54:14.086Z,1.78
2022-12-01T18:56:42.088Z,1.81
2022-12-01T18:59:11.192Z,1.78
2022-12-01T19:01:41.497Z,1.78
2022-12-01T19:04:10.292Z,1.80
2022-12-01T19:06:40.093Z,1.77
2022-12-01T19:09:09.870Z,1.73
2022-12-01T19:11:37.774Z,1.76
2022-12-01T19:14:05.233Z,1.74
2022-12-01T19:16:33.692Z,1.78
2022-12-01T19:19:01.645Z,1.79
2022-12-01T19:21:29.230Z,1.83
2022-12-01T19:23:57.109Z,1.87
2022-12-01T19:26:25.910Z,1.83
2022-12-01T19:28:53.652Z,1.82
2022-12-01T19:31:23.967Z,1.83
2022-12-01T19:33:52.992Z,1.73
2022-12-01T19:36:22.864Z,1.76
2022-12-01T19:38:50.605Z,1.78
2022-12-01T19:41:21.240Z,1.82
2022-12-01T19:43:48.964Z,1.75
2022-12-01T19:46:19.184Z,1.76
2022-12-01T19:48:47.664Z,1.76
2022-12-01T19:51:22.664Z,1.76
2022-12-01T19:53:50.666Z,1.76
2022-12-01T19:56:18.352Z,1.69
2022-12-01T19:58:45.908Z,1.67
2022-12-01T20:01:17.326Z,1.65
2022-12-01T20:03:46.908Z,1.63
2022-12-01T20:06:23.121Z,1.64
2022-12-01T20:08:51.472Z,1.61
2022-12-01T20:11:19.476Z,1.63
2022-12-01T20:13:47.813Z,1.55
2022-12-01T20:16:22.126Z,1.51
2022-12-01T20:18:50.480Z,1.49
2022-12-01T20:21:20.904Z,1.45
2022-12-01T20:23:50.691Z,1.39
2022-12-01T20:26:19.822Z,1.41
2022-12-01T20:28:48.688Z,1.35
2022-12-01T20:31:19.519Z,1.30
2022-12-01T20:33:47.937Z,1.23
2022-12-01T20:36:16.007Z,1.16
2022-12-01T20:38:44.136Z,1.10
2022-12-01T20:41:12.127Z,1.06
2022-12-01T20:43:39.700Z,1.00
2022-12-01T20:46:08.316Z,0.95
2022-12-01T20:48:35.917Z,0.92
2022-12-01T20:51:05.591Z,0.91
2022-12-01T20:53:33.142Z,0.85
2022-12-01T20:56:08.143Z,0.77
2022-12-01T20:58:37.731Z,0.73
2022-12-01T21:01:16.349Z,0.66
2022-12-01T21:03:44.940Z,0.65
2022-12-01T21:06:14.501Z,0.61
2022-12-01T21:08:43.927Z,0.54
2022-12-01T21:11:40.514Z,0.45
2022-12-01T21:14:32.275Z,0.36
2022-12-01T21:17:04.538Z,0.26
2022-12-01T21:19:48.276Z,0.19
2022-12-01T21:22:16.155Z,0.17
2022-12-01T21:24:44.720Z,0.12
2022-12-01T21:27:15.158Z,0.10
2022-12-01T21:29:45.623Z,0.02
2022-12-01T21:32:29.972Z,-0.19
2022-12-01T21:35:02.285Z,-0.18
2022-12-01T21:37:29.866Z,-0.16
2022-12-01T21:39:57.378Z,-0.13
2022-12-01T21:42:29.961Z,-0.11
2022-12-01T21:44:57.951Z,-0.13
2022-12-01T21:47:27.813Z,-0.16
2022-12-01T21:49:57.538Z,-0.19
2022-12-01T21:52:37.876Z,-0.20
2022-12-01T21:55:32.144Z,-0.22
2022-12-01T21:57:59.881Z,-0.22
2022-12-01T22:00:29.013Z,-0.23
2022-12-01T22:03:09.177Z,-0.28
2022-12-01T22:05:40.967Z,-0.28
2022-12-01T22:08:14.970Z,-0.27
2022-12-01T22:11:25.132Z,-0.30
2022-12-01T22:13:56.299Z,-0.31
2022-12-01T22:16:30.393Z,-0.31
2022-12-01T22:19:03.182Z,-0.31
2022-12-01T22:21:33.564Z,-0.32
2022-12-01T22:24:10.395Z,-0.33
2022-12-01T22:26:39.564Z,-0.33
2022-12-01T22:29:25.567Z,-0.34
2022-12-01T22:32:16.304Z,-0.35
2022-12-01T22:34:50.156Z,-0.42
2022-12-01T22:37:22.507Z,-0.40
2022-12-01T22:39:56.308Z,-0.39
2022-12-01T22:42:34.878Z,-0.39
2022-12-01T22:45:24.907Z,-0.43
2022-12-01T22:47:57.522Z,-0.46
2022-12-01T22:50:31.000Z,-0.47
2022-12-01T22:53:13.659Z,-0.45
2022-12-01T22:55:41.314Z,-0.47
2022-12-01T22:58:23.993Z,-0.46
2022-12-01T23:00:52.885Z,-0.40
2022-12-01T23:03:20.385Z,-0.33
2022-12-01T23:05:53.921Z,-0.29
2022-12-01T23:08:22.788Z,-0.17
2022-12-01T23:10:51.019Z,-0.13
2022-12-01T23:13:23.928Z,-0.09
2022-12-01T23:15:56.243Z,0.03
2022-12-01T23:18:29.207Z,0.15
2022-12-01T23:20:58.598Z,0.27
2022-12-01T23:23:31.210Z,0.31
2022-12-01T23:25:59.325Z,0.35
2022-12-01T23:28:27.159Z,0.42
2022-12-01T23:30:56.283Z,0.46
2022-12-01T23:33:25.594Z,0.48
2022-12-01T23:35:56.597Z,0.54
2022-12-01T23:38:28.218Z,0.58
2022-12-01T23:40:58.433Z,0.63
2022-12-01T23:43:31.263Z,0.70
2022-12-01T23:46:06.423Z,0.74
2022-12-01T23:48:39.715Z,0.78
2022-12-01T23:51:16.222Z,0.85
2022-12-01T23:53:43.606Z,0.90
2022-12-01T23:56:15.338Z,0.94
2022-12-01T23:58:44.163Z,1.03
